createdAt,value
2023-11-05T00:01:03.979Z,1.00
2023-11-05T00:03:31.566Z,1.05
2023-11-05T00:05:58.786Z,1.13
2023-11-05T00:08:25.521Z,1.25
2023-11-05T00:10:52.315Z,0.82
2023-11-05T00:13:19.085Z,1.15
2023-11-05T00:15:45.868Z,1.27
2023-11-05T00:18:13.030Z,1.02
2023-11-05T00:20:39.850Z,1.05
2023-11-05T00:23:06.844Z,1.30
2023-11-05T00:25:34.123Z,1.20
2023-11-05T00:28:01.214Z,1.17
2023-11-05T00:30:28.266Z,1.23
2023-11-05T00:32:55.200Z,1.60
2023-11-05T00:35:22.269Z,1.10
2023-11-05T00:37:49.178Z,1.20
2023-11-05T00:40:16.027Z,1.10
2023-11-05T00:42:42.829Z,0.98
2023-11-05T00:45:09.744Z,0.77
2023-11-05T00:47:36.542Z,0.80
2023-11-05T00:50:03.689Z,0.80
2023-11-05T00:52:30.528Z,0.70
2023-11-05T00:54:57.931Z,1.20
2023-11-05T00:57:24.776Z,0.90
2023-11-05T00:59:51.528Z,0.60
2023-11-05T01:02:18.362Z,0.65
2023-11-05T01:04:45.847Z,0.70
2023-11-05T01:07:12.771Z,0.70
2023-11-05T01:09:39.583Z,0.68
2023-11-05T01:12:06.700Z,0.80
2023-11-05T01:14:33.455Z,0.60
2023-11-05T01:17:00.288Z,0.70
2023-11-05T01:19:27.964Z,0.50
2023-11-05T01:21:54.772Z,0.50
2023-11-05T01:24:21.722Z,0.65
2023-11-05T01:26:48.508Z,0.40
2023-11-05T01:29:15.671Z,0.60
2023-11-05T01:31:42.424Z,0.50
2023-11-05T01:34:09.465Z,0.40
2023-11-05T01:36:36.377Z,0.57
2023-11-05T01:39:03.615Z,0.50
2023-11-05T01:41:31.514Z,0.77
2023-11-05T01:43:58.374Z,0.50
2023-11-05T01:46:26.963Z,0.60
2023-11-05T01:48:54.990Z,1.05
2023-11-05T01:51:22.293Z,0.55
2023-11-05T01:53:52.923Z,0.63
2023-11-05T01:56:22.101Z,0.77
2023-11-05T01:58:53.442Z,0.60
2023-11-05T02:01:20.951Z,0.55
2023-11-05T02:03:47.952Z,0.60
2023-11-05T02:06:15.181Z,0.50
2023-11-05T02:08:42.789Z,0.60
2023-11-05T02:11:09.920Z,0.70
2023-11-05T02:13:52.944Z,0.70
2023-11-05T02:16:21.505Z,0.90
2023-11-05T02:18:49.360Z,0.70
2023-11-05T02:21:27.610Z,0.60
2023-11-05T02:23:56.110Z,0.50
2023-11-05T02:26:22.964Z,0.80
2023-11-05T02:28:49.871Z,0.50
2023-11-05T02:31:17.188Z,0.77
2023-11-05T02:33:45.900Z,1.02
2023-11-05T02:36:13.371Z,0.55
2023-11-05T02:38:40.373Z,0.50
2023-11-05T02:41:08.885Z,0.70
2023-11-05T02:43:35.828Z,1.00
2023-11-05T02:46:03.230Z,1.25
2023-11-05T02:48:30.152Z,0.75
2023-11-05T02:50:57.057Z,1.20
2023-11-05T02:53:24.861Z,1.02
2023-11-05T02:55:51.760Z,1.17
2023-11-05T02:58:19.162Z,1.00
2023-11-05T03:00:46.299Z,0.98
2023-11-05T03:03:13.651Z,1.08
2023-11-05T03:05:44.713Z,1.23
2023-11-05T03:08:12.717Z,0.95
2023-11-05T03:10:40.436Z,1.02
2023-11-05T03:13:07.931Z,1.00
2023-11-05T03:15:34.989Z,0.82
2023-11-05T03:18:02.677Z,1.02
2023-11-05T03:20:30.345Z,0.90
2023-11-05T03:22:57.367Z,1.00
2023-11-05T03:25:24.345Z,0.90
2023-11-05T03:27:51.220Z,0.75
2023-11-05T03:30:18.926Z,1.10
2023-11-05T03:32:45.963Z,0.82
2023-11-05T03:35:13.219Z,1.58
2023-11-05T03:37:40.550Z,1.00
2023-11-05T03:40:08.747Z,1.25
2023-11-05T03:42:35.595Z,1.08
2023-11-05T03:45:02.521Z,1.10
2023-11-05T03:47:29.704Z,1.08
2023-11-05T03:49:56.734Z,0.90
2023-11-05T03:52:23.723Z,0.90
2023-11-05T03:54:52.349Z,1.08
2023-11-05T03:57:19.159Z,0.80
2023-11-05T03:59:46.009Z,0.82
2023-11-05T04:02:12.878Z,1.10
2023-11-05T04:04:40.765Z,1.27
2023-11-05T04:07:08.444Z,0.93
2023-11-05T04:09:35.307Z,1.00
2023-11-05T04:12:02.236Z,1.00
2023-11-05T04:14:29.052Z,1.13
2023-11-05T04:16:55.991Z,1.33
2023-11-05T04:19:22.879Z,0.95
2023-11-05T04:21:50.016Z,0.90
2023-11-05T04:24:17.031Z,1.00
2023-11-05T04:26:44.208Z,0.80
2023-11-05T04:29:11.063Z,1.05
2023-11-05T04:31:37.962Z,1.55
2023-11-05T04:34:05.920Z,1.23
2023-11-05T04:36:37.923Z,0.80
2023-11-05T04:39:04.780Z,0.93
2023-11-05T04:41:31.512Z,0.88
2023-11-05T04:43:58.313Z,0.70
2023-11-05T04:46:26.384Z,1.00
2023-11-05T04:48:53.293Z,1.15
2023-11-05T04:51:20.046Z,0.70
2023-11-05T04:53:47.034Z,1.10
2023-11-05T04:56:17.468Z,0.70
2023-11-05T04:58:44.241Z,0.90
2023-11-05T05:01:11.398Z,0.93
2023-11-05T05:03:38.960Z,1.00
2023-11-05T05:06:06.270Z,1.73
2023-11-05T05:08:33.069Z,1.15
2023-11-05T05:10:59.871Z,0.80
2023-11-05T05:13:26.830Z,0.90
2023-11-05T05:15:53.842Z,0.63
2023-11-05T05:18:20.839Z,0.82
2023-11-05T05:20:47.814Z,0.68
2023-11-05T05:23:14.655Z,1.05
2023-11-05T05:25:41.481Z,0.90
2023-11-05T05:28:08.826Z,0.60
2023-11-05T05:30:35.638Z,0.98
2023-11-05T05:33:02.529Z,0.80
2023-11-05T05:35:29.888Z,0.65
2023-11-05T05:37:56.699Z,0.70
2023-11-05T05:40:24.288Z,0.43
2023-11-05T05:42:51.726Z,0.52
2023-11-05T05:45:19.090Z,0.90
2023-11-05T05:47:46.220Z,0.50
2023-11-05T05:50:13.652Z,0.93
2023-11-05T05:52:40.456Z,0.52
2023-11-05T05:55:11.332Z,0.65
2023-11-05T05:57:38.238Z,0.60
2023-11-05T06:00:06.695Z,0.60
2023-11-05T06:02:33.498Z,0.75
2023-11-05T06:05:01.370Z,0.35
2023-11-05T06:07:32.396Z,0.40
2023-11-05T06:09:59.935Z,0.60
2023-11-05T06:12:27.856Z,0.40
2023-11-05T06:15:03.284Z,0.30
2023-11-05T06:17:35.008Z,0.50
2023-11-05T06:20:01.987Z,0.40
2023-11-05T06:22:28.837Z,0.52
2023-11-05T06:24:55.714Z,1.30
2023-11-05T06:27:22.518Z,0.40
2023-11-05T06:29:49.603Z,0.45
2023-11-05T06:32:17.603Z,0.40
2023-11-05T06:34:45.182Z,0.50
2023-11-05T06:37:13.363Z,0.30
2023-11-05T06:39:41.434Z,0.40
2023-11-05T06:42:08.344Z,0.40
2023-11-05T06:44:35.541Z,0.40
2023-11-05T06:47:02.307Z,0.50
2023-11-05T06:49:29.122Z,0.77
2023-11-05T06:51:55.909Z,0.50
2023-11-05T06:54:22.682Z,0.50
2023-11-05T06:56:49.593Z,0.40
2023-11-05T06:59:16.405Z,0.40
2023-11-05T07:01:43.343Z,0.40
2023-11-05T07:04:10.587Z,0.82
2023-11-05T07:06:37.461Z,0.47
2023-11-05T07:09:04.453Z,0.50
2023-11-05T07:11:31.384Z,1.08
2023-11-05T07:13:59.332Z,0.68
2023-11-05T07:16:27.162Z,0.70
2023-11-05T07:18:55.209Z,0.30
2023-11-05T07:21:22.103Z,0.40
2023-11-05T07:23:49.061Z,0.70
2023-11-05T07:26:16.901Z,0.68
2023-11-05T07:28:44.189Z,0.50
2023-11-05T07:31:17.772Z,0.50
2023-11-05T07:33:45.038Z,0.50
2023-11-05T07:36:12.188Z,0.80
2023-11-05T07:38:39.976Z,0.80
2023-11-05T07:41:07.299Z,1.20
2023-11-05T07:43:34.724Z,0.80
2023-11-05T07:46:02.431Z,1.08
2023-11-05T07:48:29.689Z,0.70
2023-11-05T07:50:56.731Z,0.40
2023-11-05T07:53:23.574Z,0.57
2023-11-05T07:55:50.385Z,0.50
2023-11-05T07:58:17.242Z,0.47
2023-11-05T08:00:47.745Z,0.40
2023-11-05T08:03:15.436Z,0.25
2023-11-05T08:05:42.851Z,0.60
2023-11-05T08:08:09.742Z,0.40
2023-11-05T08:10:36.974Z,0.40
2023-11-05T08:13:04.037Z,0.52
2023-11-05T08:15:30.873Z,0.40
2023-11-05T08:17:57.821Z,1.10
2023-11-05T08:20:24.785Z,0.40
2023-11-05T08:22:51.686Z,0.50
2023-11-05T08:25:23.811Z,0.50
2023-11-05T08:27:51.708Z,0.47
2023-11-05T08:30:19.757Z,0.50
2023-11-05T08:32:46.804Z,0.80
2023-11-05T08:35:13.841Z,0.40
2023-11-05T08:37:42.224Z,0.77
2023-11-05T08:40:10.560Z,0.80
2023-11-05T08:42:40.654Z,0.73
2023-11-05T08:45:08.125Z,0.35
2023-11-05T08:47:36.460Z,0.80
2023-11-05T08:50:07.891Z,0.85
2023-11-05T08:52:35.966Z,1.58
2023-11-05T08:55:04.960Z,0.68
2023-11-05T08:57:31.840Z,0.70
2023-11-05T08:59:58.674Z,1.75
2023-11-05T09:02:25.629Z,1.80
2023-11-05T09:04:52.892Z,1.02
2023-11-05T09:07:19.766Z,0.70
2023-11-05T09:09:46.722Z,0.90
2023-11-05T09:12:14.411Z,2.10
2023-11-05T09:14:41.470Z,1.40
2023-11-05T09:17:09.947Z,0.50
2023-11-05T09:19:37.155Z,0.60
2023-11-05T09:22:04.006Z,0.70
2023-11-05T09:24:31.184Z,0.63
2023-11-05T09:26:58.126Z,0.55
2023-11-05T09:29:25.317Z,0.50
2023-11-05T09:31:52.334Z,0.60
2023-11-05T09:34:19.383Z,0.63
2023-11-05T09:36:46.278Z,0.73
2023-11-05T09:39:13.862Z,0.77
2023-11-05T09:41:41.243Z,0.80
2023-11-05T09:44:08.369Z,1.60
2023-11-05T09:46:36.028Z,2.20
2023-11-05T09:49:02.996Z,4.00
2023-11-05T09:51:30.184Z,3.65
2023-11-05T09:53:57.793Z,1.20
2023-11-05T09:56:26.505Z,0.95
2023-11-05T09:58:53.640Z,2.53
2023-11-05T10:01:20.682Z,1.45
2023-11-05T10:03:48.126Z,2.10
2023-11-05T10:06:18.333Z,3.70
2023-11-05T10:08:45.494Z,2.25
2023-11-05T10:11:12.982Z,1.70
2023-11-05T10:13:39.803Z,2.00
2023-11-05T10:16:07.202Z,0.90
2023-11-05T10:18:37.966Z,1.00
2023-11-05T10:21:05.938Z,0.88
2023-11-05T10:23:53.155Z,0.50
2023-11-05T10:26:31.036Z,0.47
2023-11-05T10:28:58.910Z,0.82
2023-11-05T10:31:28.843Z,0.68
2023-11-05T10:33:57.732Z,0.40
2023-11-05T10:36:28.647Z,0.55
2023-11-05T10:38:55.900Z,0.50
2023-11-05T10:41:23.156Z,1.00
2023-11-05T10:43:51.935Z,0.75
2023-11-05T10:46:22.447Z,0.57
2023-11-05T10:48:54.644Z,0.75
2023-11-05T10:51:24.488Z,0.80
2023-11-05T10:53:53.595Z,0.73
2023-11-05T10:56:34.060Z,19.48
2023-11-05T10:59:03.588Z,2.78
2023-11-05T11:01:32.697Z,3.40
2023-11-05T11:04:16.466Z,3.95
2023-11-05T11:06:45.950Z,1.20
2023-11-05T11:09:13.072Z,4.10
2023-11-05T11:11:42.278Z,2.40
2023-11-05T11:14:10.344Z,6.38
2023-11-05T11:16:41.001Z,1.83
2023-11-05T11:19:16.168Z,2.05
2023-11-05T11:21:58.626Z,2.08
2023-11-05T11:24:34.445Z,1.95
2023-11-05T11:27:05.402Z,1.33
2023-11-05T11:29:36.679Z,1.42
2023-11-05T11:32:04.366Z,0.82
2023-11-05T11:34:34.769Z,2.40
2023-11-05T11:37:06.521Z,1.92
2023-11-05T11:39:34.103Z,0.90
2023-11-05T11:42:01.756Z,0.88
2023-11-05T11:44:28.989Z,2.83
2023-11-05T11:46:56.069Z,1.90
2023-11-05T11:49:28.781Z,2.05
2023-11-05T11:51:56.036Z,1.85
2023-11-05T11:54:26.933Z,2.08
2023-11-05T11:56:54.181Z,0.88
2023-11-05T11:59:25.311Z,2.72
2023-11-05T12:01:52.661Z,1.77
2023-11-05T12:04:20.087Z,0.90
2023-11-05T12:06:47.345Z,0.90
2023-11-05T12:09:42.417Z,1.10
2023-11-05T12:12:09.776Z,1.50
2023-11-05T12:14:36.570Z,1.42
2023-11-05T12:17:03.721Z,1.85
2023-11-05T12:19:32.653Z,1.13
2023-11-05T12:22:00.016Z,1.55
2023-11-05T12:24:29.022Z,0.95
2023-11-05T12:26:55.841Z,0.95
2023-11-05T12:29:23.557Z,0.75
2023-11-05T12:31:50.413Z,1.70
2023-11-05T12:34:17.253Z,0.80
2023-11-05T12:36:44.953Z,1.00
2023-11-05T12:39:12.074Z,1.50
2023-11-05T12:41:38.915Z,3.03
2023-11-05T12:44:07.241Z,2.40
2023-11-05T12:46:34.413Z,1.73
2023-11-05T12:49:01.452Z,2.08
2023-11-05T12:51:30.059Z,2.83
2023-11-05T12:53:58.148Z,3.05
2023-11-05T12:56:25.274Z,2.70
2023-11-05T12:58:52.111Z,2.05
2023-11-05T13:01:18.984Z,1.10
2023-11-05T13:03:46.106Z,1.67
2023-11-05T13:06:13.281Z,1.48
2023-11-05T13:08:40.364Z,0.60
2023-11-05T13:11:07.711Z,1.40
2023-11-05T13:13:35.429Z,1.50
2023-11-05T13:16:03.371Z,1.67
2023-11-05T13:20:57.345Z,1.35
2023-11-05T13:23:24.401Z,1.52
2023-11-05T13:25:51.559Z,1.48
2023-11-05T13:28:20.980Z,2.45
2023-11-05T13:30:48.111Z,4.68
2023-11-05T13:33:16.045Z,2.30
2023-11-05T13:35:45.681Z,2.22
2023-11-05T13:38:12.591Z,2.05
2023-11-05T13:40:39.605Z,0.88
2023-11-05T13:43:06.428Z,2.72
2023-11-05T13:45:33.361Z,1.63
2023-11-05T13:48:00.231Z,1.60
2023-11-05T13:50:27.203Z,1.98
2023-11-05T13:52:56.211Z,1.10
2023-11-05T13:55:23.151Z,1.15
2023-11-05T13:57:49.948Z,1.08
2023-11-05T14:00:16.859Z,2.03
2023-11-05T14:02:43.763Z,2.28
2023-11-05T14:05:11.127Z,0.60
2023-11-05T14:07:38.793Z,0.85
2023-11-05T14:10:08.404Z,1.23
2023-11-05T14:12:36.212Z,3.63
2023-11-05T14:15:07.201Z,1.33
2023-11-05T14:17:34.663Z,0.90
2023-11-05T14:20:02.225Z,0.82
2023-11-05T14:22:29.128Z,1.20
2023-11-05T14:24:56.058Z,0.70
2023-11-05T14:27:23.033Z,0.88
2023-11-05T14:29:49.813Z,1.40
2023-11-05T14:32:19.406Z,1.52
2023-11-05T14:34:46.253Z,0.73
2023-11-05T14:37:13.131Z,0.68
2023-11-05T14:39:40.955Z,1.20
2023-11-05T14:42:08.696Z,0.70
2023-11-05T14:44:35.856Z,0.77
2023-11-05T14:47:04.225Z,0.88
2023-11-05T14:49:31.189Z,0.63
2023-11-05T14:51:58.625Z,0.93
2023-11-05T14:54:25.851Z,1.00
2023-11-05T14:56:52.680Z,0.30
2023-11-05T14:59:20.224Z,0.60
2023-11-05T15:01:47.058Z,0.50
2023-11-05T15:04:14.800Z,0.35
2023-11-05T15:06:41.660Z,0.60
2023-11-05T15:09:09.326Z,0.40
2023-11-05T15:11:36.162Z,0.75
2023-11-05T15:14:03.147Z,1.90
2023-11-05T15:16:32.457Z,1.67
2023-11-05T15:19:01.352Z,1.30
2023-11-05T15:21:28.202Z,1.30
2023-11-05T15:23:56.471Z,2.63
2023-11-05T15:26:27.810Z,2.38
2023-11-05T15:28:55.668Z,0.80
2023-11-05T15:31:24.282Z,1.25
2023-11-05T15:33:54.866Z,0.90
2023-11-05T15:36:25.585Z,1.20
2023-11-05T15:38:52.390Z,1.20
2023-11-05T15:41:20.129Z,0.95
2023-11-05T15:43:48.620Z,1.00
2023-11-05T15:46:15.776Z,1.40
2023-11-05T15:48:42.975Z,1.60
2023-11-05T15:51:09.811Z,2.05
2023-11-05T15:53:36.773Z,2.15
2023-11-05T15:56:03.976Z,1.73
2023-11-05T15:58:31.751Z,1.20
2023-11-05T16:00:58.842Z,0.70
2023-11-05T16:03:26.039Z,1.27
2023-11-05T16:05:53.165Z,1.20
2023-11-05T16:08:21.112Z,2.95
2023-11-05T16:10:47.939Z,2.40
2023-11-05T16:13:14.745Z,4.38
2023-11-05T16:15:41.768Z,6.88
2023-11-05T16:18:13.816Z,2.15
2023-11-05T16:20:41.754Z,3.53
2023-11-05T16:23:10.394Z,2.20
2023-11-05T16:25:37.522Z,2.35
2023-11-05T16:28:04.744Z,8.20
2023-11-05T16:30:35.384Z,6.28
2023-11-05T16:33:02.971Z,6.45
2023-11-05T16:35:30.042Z,4.00
2023-11-05T16:37:57.048Z,9.20
2023-11-05T16:40:23.942Z,10.10
2023-11-05T16:42:51.004Z,8.43
2023-11-05T16:45:17.969Z,3.50
2023-11-05T16:47:45.368Z,4.53
2023-11-05T16:50:15.536Z,15.95
2023-11-05T16:52:43.344Z,16.80
2023-11-05T16:55:13.427Z,12.80
2023-11-05T16:57:43.114Z,4.72
2023-11-05T17:00:13.231Z,3.60
2023-11-05T17:02:40.837Z,1.38
2023-11-05T17:05:09.880Z,2.53
2023-11-05T17:07:36.790Z,3.80
2023-11-05T17:10:03.995Z,3.45
2023-11-05T17:12:30.948Z,8.95
2023-11-05T17:15:03.281Z,8.18
2023-11-05T17:17:37.824Z,6.63
2023-11-05T17:20:08.434Z,7.00
2023-11-05T17:22:35.566Z,5.93
2023-11-05T17:25:05.035Z,3.33
2023-11-05T17:27:33.073Z,3.72
2023-11-05T17:29:59.867Z,4.07
2023-11-05T17:32:26.627Z,3.13
2023-11-05T17:34:53.934Z,3.42
2023-11-05T17:37:20.770Z,4.82
2023-11-05T17:39:47.870Z,1.75
2023-11-05T17:42:15.052Z,2.97
2023-11-05T17:44:41.827Z,2.20
2023-11-05T17:47:08.769Z,3.03
2023-11-05T17:49:35.782Z,4.68
2023-11-05T17:52:03.529Z,5.85
2023-11-05T17:54:30.323Z,1.33
2023-11-05T17:56:57.572Z,3.13
2023-11-05T17:59:27.192Z,2.50
2023-11-05T18:01:54.472Z,2.80
2023-11-05T18:04:22.709Z,1.65
2023-11-05T18:06:49.559Z,1.95
2023-11-05T18:09:16.812Z,2.45
2023-11-05T18:11:46.651Z,1.33
2023-11-05T18:14:13.933Z,2.03
2023-11-05T18:16:40.920Z,1.40
2023-11-05T18:19:08.197Z,1.30
2023-11-05T18:21:35.957Z,1.30
2023-11-05T18:24:02.968Z,1.02
2023-11-05T18:26:29.720Z,1.20
2023-11-05T18:28:56.696Z,1.75
2023-11-05T18:31:23.621Z,1.27
2023-11-05T18:33:50.720Z,2.00
2023-11-05T18:36:21.554Z,2.15
2023-11-05T18:38:49.216Z,1.40
2023-11-05T18:41:16.848Z,1.85
2023-11-05T18:43:45.231Z,1.52
2023-11-05T18:46:17.702Z,1.33
2023-11-05T18:48:46.091Z,2.35
2023-11-05T18:51:13.060Z,1.88
2023-11-05T18:53:39.865Z,1.48
2023-11-05T18:56:06.981Z,3.97
2023-11-05T18:58:33.939Z,3.13
2023-11-05T19:01:00.884Z,4.78
2023-11-05T19:03:27.943Z,3.10
2023-11-05T19:05:54.947Z,4.90
2023-11-05T19:08:22.516Z,2.72
2023-11-05T19:10:49.417Z,3.80
2023-11-05T19:13:17.561Z,4.55
2023-11-05T19:15:44.320Z,3.55
2023-11-05T19:18:11.207Z,3.92
2023-11-05T19:20:39.454Z,4.15
2023-11-05T19:23:06.659Z,4.05
2023-11-05T19:25:33.626Z,4.63
2023-11-05T19:28:00.661Z,3.47
2023-11-05T19:30:27.949Z,2.08
2023-11-05T19:32:54.782Z,2.17
2023-11-05T19:35:21.651Z,2.15
2023-11-05T19:37:48.463Z,2.22
2023-11-05T19:40:15.376Z,2.30
2023-11-05T19:42:42.345Z,1.67
2023-11-05T19:45:09.851Z,1.90
2023-11-05T19:47:36.660Z,2.30
2023-11-05T19:50:04.231Z,1.60
2023-11-05T19:52:31.162Z,1.45
2023-11-05T19:54:58.005Z,2.63
2023-11-05T19:57:24.776Z,2.03
2023-11-05T19:59:51.606Z,1.73
2023-11-05T20:02:22.296Z,1.52
2023-11-05T20:04:51.635Z,1.60
2023-11-05T20:07:18.869Z,1.92
2023-11-05T20:09:48.765Z,1.42
2023-11-05T20:12:16.184Z,1.67
2023-11-05T20:14:43.000Z,2.28
2023-11-05T20:17:10.019Z,1.60
2023-11-05T20:19:37.468Z,1.73
2023-11-05T20:22:04.533Z,1.70
2023-11-05T20:24:31.309Z,1.60
2023-11-05T20:26:58.136Z,2.30
2023-11-05T20:29:25.017Z,1.65
2023-11-05T20:31:52.122Z,1.35
2023-11-05T20:34:22.179Z,1.63
2023-11-05T20:36:50.634Z,1.83
2023-11-05T20:39:18.399Z,1.55
2023-11-05T20:41:45.235Z,1.50
2023-11-05T20:44:12.116Z,2.20
2023-11-05T20:46:40.693Z,2.00
2023-11-05T20:49:07.750Z,1.63
2023-11-05T20:51:35.523Z,1.67
2023-11-05T20:54:02.428Z,1.42
2023-11-05T20:56:29.476Z,1.00
2023-11-05T20:58:56.409Z,2.03
2023-11-05T21:01:23.227Z,2.22
2023-11-05T21:03:50.147Z,1.73
2023-11-05T21:06:17.181Z,2.33
2023-11-05T21:08:43.981Z,1.40
2023-11-05T21:11:10.898Z,1.48
2023-11-05T21:13:37.896Z,1.30
2023-11-05T21:16:05.215Z,1.80
2023-11-05T21:18:32.490Z,1.88
2023-11-05T21:20:59.322Z,1.50
2023-11-05T21:23:26.102Z,1.15
2023-11-05T21:25:52.876Z,1.30
2023-11-05T21:28:19.723Z,1.50
2023-11-05T21:30:46.506Z,1.30
2023-11-05T21:33:13.544Z,1.10
2023-11-05T21:35:40.577Z,0.98
2023-11-05T21:38:07.942Z,1.23
2023-11-05T21:40:34.737Z,1.27
2023-11-05T21:43:01.550Z,1.52
2023-11-05T21:45:29.396Z,1.30
2023-11-05T21:47:56.556Z,1.25
2023-11-05T21:50:25.929Z,0.95
2023-11-05T21:52:54.032Z,0.85
2023-11-05T21:55:21.287Z,1.02
2023-11-05T21:57:48.062Z,0.77
2023-11-05T22:00:15.210Z,1.58
2023-11-05T22:02:42.274Z,0.90
2023-11-05T22:05:09.736Z,1.08
2023-11-05T22:07:36.886Z,0.77
2023-11-05T22:10:05.388Z,1.13
2023-11-05T22:12:32.247Z,0.90
2023-11-05T22:14:59.847Z,0.88
2023-11-05T22:17:26.882Z,0.80
2023-11-05T22:19:54.948Z,1.02
2023-11-05T22:22:23.296Z,0.63
2023-11-05T22:24:52.840Z,0.85
2023-11-05T22:27:20.236Z,1.25
2023-11-05T22:29:47.150Z,0.95
2023-11-05T22:32:14.224Z,0.68
2023-11-05T22:34:41.283Z,0.75
2023-11-05T22:37:08.129Z,0.77
2023-11-05T22:39:35.265Z,0.98
2023-11-05T22:42:02.342Z,1.33
2023-11-05T22:44:29.122Z,0.80
2023-11-05T22:46:56.422Z,0.93
2023-11-05T22:49:25.533Z,0.68
2023-11-05T22:51:53.902Z,0.82
2023-11-05T22:54:21.671Z,0.90
2023-11-05T22:56:48.968Z,1.48
2023-11-05T22:59:15.948Z,0.70
2023-11-05T23:01:43.025Z,0.73
2023-11-05T23:04:10.028Z,1.00
2023-11-05T23:06:36.847Z,0.80
2023-11-05T23:09:04.099Z,1.10
2023-11-05T23:11:32.640Z,1.17
2023-11-05T23:14:01.798Z,1.00
2023-11-05T23:16:28.646Z,1.10
2023-11-05T23:18:55.606Z,1.00
2023-11-05T23:21:22.850Z,1.02
2023-11-05T23:23:49.615Z,1.02
2023-11-05T23:26:17.618Z,0.80
2023-11-05T23:28:45.008Z,0.80
2023-11-05T23:31:11.774Z,1.00
2023-11-05T23:33:39.412Z,1.05
2023-11-05T23:36:06.412Z,1.20
2023-11-05T23:38:33.153Z,1.05
2023-11-05T23:41:00.068Z,0.93
2023-11-05T23:43:26.891Z,0.85
2023-11-05T23:45:54.202Z,0.77
2023-11-05T23:48:21.374Z,0.77
2023-11-05T23:50:48.856Z,0.80
2023-11-05T23:53:15.794Z,1.20
2023-11-05T23:55:42.822Z,0.70
2023-11-05T23:58:09.723Z,0.80
